Time;durP1;ratioP1;P1;durP2;ratioP2;P2;SDS_P1;SDS_P2;PMS_P1;PMS_P2;Temp;Humidity;BMP_temperature;BMP_pressure;BME280_temperature;BME280_humidity;BME280_pressure;Samples;Min_cycle;Max_cycle;Signal;HPM_P1;HPM_P2
2022/07/18 00:01:51;;;;;;;2.53;1.83;;;;;;;15.64;64.10;101305.69;5123270;27;20484;-65
2022/07/18 00:04:19;;;;;;;5.00;2.10;;;;;;;15.67;64.29;101312.63;5123528;28;20475;-65
2022/07/18 00:06:45;;;;;;;4.80;1.73;;;;;;;15.73;64.07;101310.19;5123214;27;20469;-65
2022/07/18 00:09:12;;;;;;;3.70;2.30;;;;;;;15.87;63.60;101305.34;5123520;28;20456;-65
2022/07/18 00:11:39;;;;;;;5.07;2.20;;;;;;;15.76;64.26;101309.94;5122678;27;20501;-68
2022/07/18 00:14:05;;;;;;;4.23;2.00;;;;;;;15.60;64.80;101299.72;5123780;28;20787;-66
2022/07/18 00:16:32;;;;;;;3.10;2.23;;;;;;;15.51;65.53;101299.78;5122404;27;20473;-66
2022/07/18 00:19:00;;;;;;;3.30;1.90;;;;;;;15.49;65.31;101299.91;5122795;28;20466;-66
2022/07/18 00:21:28;;;;;;;3.40;2.27;;;;;;;15.52;65.03;101305.03;5122772;27;20462;-66
2022/07/18 00:23:54;;;;;;;3.40;1.70;;;;;;;15.45;65.46;101295.81;5123345;28;20445;-66
2022/07/18 00:26:21;;;;;;;7.03;1.70;;;;;;;15.42;65.59;101288.88;5122721;27;20484;-66
2022/07/18 00:28:48;;;;;;;3.30;1.90;;;;;;;15.36;66.22;101291.28;5123382;28;20454;-66
2022/07/18 00:31:14;;;;;;;3.03;1.87;;;;;;;15.33;66.25;101291.56;5122843;27;20480;-66
2022/07/18 00:33:41;;;;;;;4.13;2.10;;;;;;;15.31;66.34;101282.78;5123140;28;20484;-67
2022/07/18 00:36:08;;;;;;;3.33;2.00;;;;;;;15.31;66.16;101282.78;5121855;27;20478;-66
2022/07/18 00:38:36;;;;;;;3.27;2.10;;;;;;;15.38;65.83;101275.81;5123004;28;20489;-66
2022/07/18 00:41:03;;;;;;;2.67;2.00;;;;;;;15.30;66.24;101271.19;5122013;27;20458;-66
2022/07/18 00:43:29;;;;;;;7.70;1.80;;;;;;;15.25;66.31;101266.22;5123163;28;20423;-66
2022/07/18 00:45:56;;;;;;;2.27;1.97;;;;;;;15.13;67.14;101262.00;5121751;27;20596;-66
2022/07/18 00:48:22;;;;;;;4.20;2.10;;;;;;;15.02;67.22;101257.63;5122539;28;20446;-66
2022/07/18 00:50:49;;;;;;;5.27;2.33;;;;;;;15.05;67.49;101253.78;5121581;28;20490;-65
2022/07/18 00:53:16;;;;;;;3.10;2.23;;;;;;;15.04;67.69;101258.34;5122764;28;20462;-65
2022/07/18 00:55:46;;;;;;;2.33;2.10;;;;;;;15.03;68.05;101251.28;5122088;27;20498;-65
2022/07/18 00:58:14;;;;;;;3.33;1.97;;;;;;;15.03;67.66;101247.72;5122703;28;20574;-65
2022/07/18 01:03:25;;;;;;;3.40;1.87;;;;;;;14.98;67.96;101240.09;5122632;28;20496;-66
2022/07/18 01:05:52;;;;;;;5.13;2.40;;;;;;;14.96;68.38;101233.97;5121506;27;20493;-66
2022/07/18 01:08:18;;;;;;;2.73;2.03;;;;;;;14.92;68.79;101237.97;5122552;28;20450;-65
2022/07/18 01:10:47;;;;;;;3.50;2.10;;;;;;;14.87;70.01;101234.84;5121840;27;20462;-66
2022/07/18 01:13:13;;;;;;;4.13;2.37;;;;;;;14.88;70.42;101234.72;5122733;28;20430;-65
2022/07/18 01:15:40;;;;;;;3.43;2.60;;;;;;;14.85;70.84;101243.06;5121463;27;20474;-65
2022/07/18 01:18:07;;;;;;;4.23;2.50;;;;;;;14.84;70.46;101251.28;5121975;28;20446;-66
2022/07/18 01:20:35;;;;;;;5.23;2.13;;;;;;;14.80;70.72;101255.28;5120206;27;20465;-66
2022/07/18 01:23:01;;;;;;;2.60;2.23;;;;;;;14.67;70.71;101252.88;5122294;28;20427;-66
2022/07/18 01:25:28;;;;;;;2.20;1.57;;;;;;;14.67;70.24;101258.25;5121174;27;20470;-66
2022/07/18 01:27:55;;;;;;;3.43;2.20;;;;;;;14.59;70.22;101256.28;5122253;28;20876;-65
2022/07/18 01:30:22;;;;;;;3.57;2.03;;;;;;;14.56;70.03;101259.19;5121668;27;20499;-66
2022/07/18 01:32:55;;;;;;;2.60;2.10;;;;;;;14.49;70.09;101258.94;5122272;28;20468;-66
2022/07/18 01:35:22;;;;;;;4.00;2.30;;;;;;;14.46;70.15;101255.66;5120126;27;20473;-65
2022/07/18 01:37:52;;;;;;;3.43;2.60;;;;;;;14.46;69.47;101252.97;5121720;28;20477;-64
2022/07/18 01:40:18;;;;;;;4.63;2.07;;;;;;;14.40;70.49;101249.00;5120957;27;20513;-64
2022/07/18 01:42:45;;;;;;;5.90;2.70;;;;;;;14.50;70.00;101241.78;5121681;28;20430;-65
2022/07/18 01:45:12;;;;;;;3.50;2.10;;;;;;;14.67;69.51;101237.56;5121240;27;20475;-64
2022/07/18 01:47:38;;;;;;;3.63;2.27;;;;;;;14.63;70.11;101232.59;5120562;28;20441;-65
2022/07/18 01:50:06;;;;;;;2.43;2.00;;;;;;;14.41;70.68;101242.66;5121182;28;20446;-65
2022/07/18 01:52:33;;;;;;;3.03;2.20;;;;;;;14.30;71.15;101245.47;5121340;28;20462;-65
2022/07/18 01:55:01;;;;;;;2.33;1.97;;;;;;;14.29;71.20;101241.94;5121185;28;20458;-66
2022/07/18 01:57:28;;;;;;;3.10;2.23;;;;;;;14.33;71.02;101234.44;5121132;27;20501;-66
2022/07/18 01:59:55;;;;;;;2.90;2.27;;;;;;;14.25;71.02;101228.91;5121263;28;20516;-66
2022/07/18 02:02:21;;;;;;;3.23;2.00;;;;;;;14.26;71.34;101231.44;5120985;27;20481;-67
2022/07/18 02:05:00;;;;;;;4.30;2.13;;;;;;;14.20;71.93;101237.41;5121174;28;20468;-66
2022/07/18 02:07:27;;;;;;;5.03;2.50;;;;;;;14.21;71.71;101238.25;5120823;27;20495;-66
2022/07/18 02:09:53;;;;;;;3.03;2.17;;;;;;;14.22;71.54;101242.66;5121445;28;20955;-65
2022/07/18 02:12:21;;;;;;;3.27;2.50;;;;;;;14.22;71.80;101232.72;5120739;27;20524;-64
2022/07/18 02:14:48;;;;;;;3.27;2.17;;;;;;;14.21;71.60;101227.50;5121138;28;20473;-65
2022/07/18 02:17:15;;;;;;;9.93;2.80;;;;;;;14.19;70.73;101226.78;5119950;27;20493;-65
2022/07/18 02:19:42;;;;;;;5.20;2.13;;;;;;;14.16;70.80;101214.44;5120744;28;20490;-65
2022/07/18 02:22:08;;;;;;;2.30;2.00;;;;;;;14.08;70.79;101225.09;5120661;27;20461;-65
2022/07/18 02:24:35;;;;;;;4.37;2.40;;;;;;;14.10;69.88;101217.72;5120855;28;20850;-65
2022/07/18 02:27:02;;;;;;;3.27;2.37;;;;;;;14.09;70.08;101214.16;5120255;27;20528;-65
2022/07/18 02:29:30;;;;;;;10.27;2.70;;;;;;;14.06;70.26;101213.59;5121247;28;20514;-66
2022/07/18 02:31:57;;;;;;;8.93;2.17;;;;;;;14.04;70.95;101211.03;5120271;27;20473;-66
2022/07/18 02:34:24;;;;;;;3.90;2.10;;;;;;;14.00;71.25;101208.78;5120643;28;20434;-67
2022/07/18 02:36:51;;;;;;;3.70;2.00;;;;;;;13.92;71.87;101212.16;5119400;27;21379;-66
2022/07/18 02:39:19;;;;;;;4.27;1.90;;;;;;;13.85;72.19;101209.19;5121048;28;20469;-66
2022/07/18 02:41:46;;;;;;;3.23;2.40;;;;;;;13.80;72.64;101213.25;5120304;28;21062;-66
2022/07/18 02:44:12;;;;;;;5.03;2.40;;;;;;;13.76;73.10;101215.38;5121453;28;20455;-66
2022/07/18 02:46:40;;;;;;;2.73;2.23;;;;;;;13.73;73.00;101212.97;5119609;27;20473;-66
2022/07/18 02:49:07;;;;;;;3.17;2.40;;;;;;;13.72;73.17;101219.34;5119617;28;20468;-66
2022/07/18 02:51:34;;;;;;;4.80;3.30;;;;;;;13.70;73.19;101213.25;5120185;27;20470;-65
2022/07/18 02:54:00;;;;;;;4.70;3.20;;;;;;;13.68;73.43;101215.19;5121167;28;20588;-65
2022/07/18 02:56:27;;;;;;;2.70;2.10;;;;;;;13.69;73.23;101214.22;5119987;27;20492;-66
2022/07/18 02:58:54;;;;;;;2.60;2.17;;;;;;;13.72;73.33;101219.34;5120610;28;20490;-66
2022/07/18 03:01:20;;;;;;;3.73;2.00;;;;;;;13.71;73.32;101214.94;5120286;27;20477;-65
2022/07/18 03:03:48;;;;;;;4.83;2.27;;;;;;;13.70;73.99;101205.19;5120525;28;20430;-66
2022/07/18 03:06:15;;;;;;;3.50;2.33;;;;;;;13.69;74.32;101208.84;5119876;27;20500;-66
2022/07/18 03:08:42;;;;;;;4.27;2.40;;;;;;;13.66;73.96;101204.63;5120296;28;20450;-65
2022/07/18 03:11:08;;;;;;;6.90;2.30;;;;;;;13.68;73.64;101202.63;5120248;27;20501;-64
2022/07/18 03:13:35;;;;;;;6.00;3.00;;;;;;;13.68;73.84;101197.28;5120684;28;20430;-64
2022/07/18 03:16:02;;;;;;;4.47;2.43;;;;;;;13.66;73.94;101199.25;5120131;27;20476;-65
2022/07/18 03:18:28;;;;;;;2.90;2.60;;;;;;;13.70;74.07;101205.19;5120411;28;20446;-65
2022/07/18 03:20:56;;;;;;;2.50;2.30;;;;;;;13.67;73.93;101197.41;5119110;27;20978;-65
2022/07/18 03:23:23;;;;;;;2.50;2.30;;;;;;;13.68;74.26;101191.03;5120652;28;20452;-65
2022/07/18 03:25:50;;;;;;;4.53;2.70;;;;;;;13.71;74.20;101188.94;5119630;27;20488;-65
2022/07/18 03:28:16;;;;;;;5.60;2.73;;;;;;;13.75;73.73;101193.03;5119703;28;20453;-65
2022/07/18 03:30:43;;;;;;;5.53;3.20;;;;;;;13.81;73.90;101190.78;5119685;27;20470;-65
2022/07/18 03:33:10;;;;;;;3.17;2.80;;;;;;;13.78;73.85;101193.75;5120832;28;20426;-65
2022/07/18 03:35:37;;;;;;;3.87;2.60;;;;;;;13.78;74.07;101189.22;5119142;27;20469;-65
2022/07/18 03:38:05;;;;;;;3.53;2.23;;;;;;;13.85;73.85;101184.13;5119933;28;20485;-64
2022/07/18 03:40:32;;;;;;;3.90;2.20;;;;;;;13.85;74.06;101182.31;5119747;27;20466;-64
2022/07/18 03:42:58;;;;;;;5.43;3.03;;;;;;;14.05;73.64;101185.03;5120836;28;20474;-65
2022/07/18 03:45:25;;;;;;;5.27;2.60;;;;;;;14.68;71.40;101179.19;5123577;27;20438;-65
2022/07/18 03:47:52;;;;;;;4.97;2.90;;;;;;;15.34;67.88;101183.66;5123405;28;20441;-65
2022/07/18 03:50:19;;;;;;;4.70;2.93;;;;;;;16.27;65.15;101190.78;5123204;27;20963;-65
2022/07/18 03:52:45;;;;;;;2.90;2.10;;;;;;;16.03;64.62;101184.16;5123868;28;20520;-65
2022/07/18 03:55:14;;;;;;;3.20;2.53;;;;;;;15.86;65.35;101187.66;5122986;27;20490;-65
2022/07/18 03:57:41;;;;;;;2.70;1.90;;;;;;;15.57;65.88;101188.66;5124035;27;20439;-66
2022/07/18 04:00:09;;;;;;;2.40;2.20;;;;;;;16.66;63.63;101185.84;5123349;27;20482;-65
2022/07/18 04:02:39;;;;;;;2.47;2.20;;;;;;;17.95;58.16;101187.72;5124011;28;20458;-66
2022/07/18 04:05:06;;;;;;;5.17;2.50;;;;;;;18.89;54.96;101182.00;5123080;28;20543;-66
2022/07/18 04:07:33;;;;;;;2.80;2.33;;;;;;;19.68;52.15;101180.19;5123419;28;20487;-66
2022/07/18 04:10:00;;;;;;;3.53;1.90;;;;;;;19.66;52.26;101181.38;5123395;28;20438;-66
2022/07/18 04:12:28;;;;;;;5.63;2.70;;;;;;;19.97;52.03;101183.28;5123300;27;20493;-66
2022/07/18 04:14:54;;;;;;;2.90;1.70;;;;;;;20.28;50.55;101194.09;5123135;28;20426;-65
2022/07/18 04:17:21;;;;;;;5.23;2.53;;;;;;;20.55;48.21;101184.50;5122430;27;20477;-66
2022/07/18 04:19:48;;;;;;;9.40;2.00;;;;;;;21.17;46.26;101188.00;5123077;28;20542;-65
2022/07/18 04:22:14;;;;;;;6.50;2.20;;;;;;;21.39;45.72;101189.78;5122463;27;20531;-66
2022/07/18 04:24:41;;;;;;;3.00;2.30;;;;;;;20.28;47.53;101197.66;5123377;28;20452;-66
2022/07/18 04:27:08;;;;;;;3.50;2.37;;;;;;;20.01;48.19;101196.28;5122541;27;20470;-66
2022/07/18 04:29:37;;;;;;;6.33;2.17;;;;;;;20.26;48.35;101196.16;5123710;28;20807;-66
2022/07/18 04:32:04;;;;;;;3.27;2.90;;;;;;;20.59;47.08;101191.28;5122469;27;20474;-66
2022/07/18 04:34:31;;;;;;;4.40;1.97;;;;;;;20.69;47.10;101188.31;5122828;28;20472;-66
2022/07/18 04:36:58;;;;;;;3.00;2.00;;;;;;;19.69;48.79;101181.88;5118424;27;21261;-65
2022/07/18 04:39:24;;;;;;;9.60;3.10;;;;;;;18.36;53.05;101178.78;5109255;28;21007;-66
2022/07/18 04:41:51;;;;;;;3.20;2.07;;;;;;;17.56;56.42;101182.84;5101067;27;20478;-65
2022/07/18 04:44:18;;;;;;;5.70;2.40;;;;;;;16.93;56.46;101167.84;5102390;28;20415;-65
2022/07/18 04:46:46;;;;;;;14.97;2.33;;;;;;;16.37;58.93;101175.34;5100063;27;20470;-66
2022/07/18 04:49:12;;;;;;;5.73;2.87;;;;;;;16.14;60.10;101178.53;5101598;28;20439;-66
2022/07/18 04:51:39;;;;;;;4.60;2.37;;;;;;;16.40;59.89;101174.19;5100711;27;20990;-66
2022/07/18 04:54:08;;;;;;;5.07;2.40;;;;;;;16.83;58.17;101177.88;5101268;28;20416;-65
2022/07/18 04:56:34;;;;;;;6.10;2.37;;;;;;;17.22;56.85;101175.63;5101134;27;20546;-66
2022/07/18 04:59:01;;;;;;;3.73;2.30;;;;;;;17.46;54.68;101171.31;5101403;28;20892;-66
2022/07/18 05:01:28;;;;;;;3.63;2.17;;;;;;;18.67;52.32;101178.13;5100459;27;20474;-66
2022/07/18 05:03:56;;;;;;;2.93;1.97;;;;;;;18.81;50.60;101172.81;5101700;28;20457;-66
2022/07/18 05:06:22;;;;;;;3.60;2.20;;;;;;;19.39;49.51;101170.00;5100074;27;20495;-65
2022/07/18 05:08:50;;;;;;;3.23;2.20;;;;;;;20.21;47.56;101169.53;5100925;28;20446;-65
2022/07/18 05:11:16;;;;;;;6.10;2.33;;;;;;;20.77;45.62;101163.78;5100722;27;21132;-65
2022/07/18 05:13:43;;;;;;;4.23;2.13;;;;;;;20.76;45.14;101164.84;5101521;28;21080;-69
2022/07/18 05:16:10;;;;;;;5.63;2.33;;;;;;;21.57;43.93;101177.69;5098928;27;20470;-66
2022/07/18 05:18:36;;;;;;;5.87;2.40;;;;;;;21.12;44.20;101168.69;5101465;28;20511;-66
2022/07/18 05:21:04;;;;;;;3.63;2.00;;;;;;;22.75;41.58;101161.91;5100035;28;20514;-66
2022/07/18 05:23:31;;;;;;;3.63;2.30;;;;;;;22.73;41.65;101174.88;5101091;28;20427;-66
2022/07/18 05:25:58;;;;;;;3.17;1.70;;;;;;;22.38;42.16;101169.38;5100468;27;20528;-66
2022/07/18 05:28:24;;;;;;;3.50;2.17;;;;;;;22.52;41.66;101171.16;5101267;28;20475;-66
2022/07/18 05:30:54;;;;;;;3.93;2.10;;;;;;;22.10;42.92;101172.84;5100166;27;20496;-66
2022/07/18 05:33:20;;;;;;;3.33;1.93;;;;;;;22.35;41.22;101172.47;5101158;28;20441;-66
2022/07/18 05:35:47;;;;;;;3.50;2.17;;;;;;;23.04;39.50;101171.75;5099580;27;20481;-66
2022/07/18 05:38:15;;;;;;;4.77;2.00;;;;;;;24.57;36.60;101179.63;5099774;28;20469;-66
2022/07/18 05:40:42;;;;;;;4.57;1.90;;;;;;;24.96;34.69;101177.06;5100184;27;20502;-66
2022/07/18 05:43:08;;;;;;;1.97;1.37;;;;;;;24.46;36.09;101188.44;5100986;28;20438;-66
2022/07/18 05:45:35;;;;;;;3.90;2.17;;;;;;;25.09;35.02;101173.47;5099826;27;20527;-66
2022/07/18 05:48:02;;;;;;;3.00;1.90;;;;;;;25.07;35.22;101179.16;5100484;28;20528;-66
2022/07/18 05:50:28;;;;;;;3.33;2.13;;;;;;;25.08;35.36;101171.78;5099754;27;20474;-66
2022/07/18 05:52:55;;;;;;;3.00;1.87;;;;;;;24.93;35.33;101170.13;5100165;28;20454;-66
2022/07/18 05:55:23;;;;;;;2.60;1.70;;;;;;;24.30;36.32;101170.53;5099979;27;20439;-66
2022/07/18 05:57:50;;;;;;;4.33;2.00;;;;;;;24.85;35.80;101161.31;5100546;28;20468;-66
2022/07/18 06:00:18;;;;;;;4.83;2.00;;;;;;;24.08;37.19;101169.91;5098814;27;20593;-68
2022/07/18 06:02:45;;;;;;;2.57;1.80;;;;;;;24.62;36.61;101165.34;5100470;28;20490;-66
2022/07/18 06:05:12;;;;;;;2.80;2.17;;;;;;;24.10;37.22;101162.34;5098965;27;20465;-66
2022/07/18 06:07:38;;;;;;;5.47;1.80;;;;;;;24.36;38.00;101149.75;5099387;28;20458;-66
2022/07/18 06:10:06;;;;;;;3.20;2.13;;;;;;;26.14;34.11;101143.09;5100418;28;20447;-66
2022/07/18 06:12:34;;;;;;;3.00;2.07;;;;;;;25.27;35.33;101135.31;5099781;28;20478;-66
2022/07/18 06:15:01;;;;;;;2.70;1.67;;;;;;;26.14;34.16;101131.28;5099938;28;20454;-66
2022/07/18 06:17:28;;;;;;;3.60;1.70;;;;;;;26.45;32.88;101138.63;5098902;27;20473;-66
2022/07/18 06:19:55;;;;;;;5.30;1.87;;;;;;;26.85;32.65;101139.09;5099655;28;20485;-66
2022/07/18 06:22:23;;;;;;;4.40;2.20;;;;;;;25.85;34.14;101145.38;5098834;27;20475;-65
2022/07/18 06:24:49;;;;;;;5.77;2.20;;;;;;;26.90;31.63;101143.91;5100620;28;20437;-66
2022/07/18 06:27:16;;;;;;;3.17;2.10;;;;;;;26.39;32.91;101139.53;5099292;27;20494;-65
2022/07/18 06:29:44;;;;;;;4.57;2.20;;;;;;;28.05;30.41;101136.78;5099646;28;20765;-66
2022/07/18 06:32:11;;;;;;;2.40;1.50;;;;;;;26.98;32.44;101129.09;5099622;27;20540;-65
2022/07/18 06:34:37;;;;;;;3.30;1.80;;;;;;;26.99;31.18;101128.81;5100068;28;21199;-66
2022/07/18 06:37:04;;;;;;;4.13;1.67;;;;;;;26.76;32.50;101131.41;5098102;27;21211;-65
2022/07/18 06:39:31;;;;;;;3.50;2.00;;;;;;;27.00;31.76;101130.50;5099969;28;20888;-66
2022/07/18 06:41:58;;;;;;;4.17;1.80;;;;;;;25.12;36.02;101129.25;5098998;27;20559;-66
2022/07/18 06:44:24;;;;;;;5.50;2.10;;;;;;;25.39;36.00;101127.28;5099822;28;20442;-66
2022/07/18 06:46:52;;;;;;;3.90;1.97;;;;;;;27.01;32.96;101128.59;5098589;27;20893;-66
2022/07/18 06:49:19;;;;;;;4.40;2.00;;;;;;;28.26;31.42;101129.91;5099955;28;20535;-66
2022/07/18 06:51:46;;;;;;;4.47;2.10;;;;;;;28.48;30.47;101113.63;5098501;27;20493;-67
2022/07/18 06:54:13;;;;;;;4.97;1.77;;;;;;;28.64;30.18;101112.09;5099762;28;20435;-67
2022/07/18 06:56:39;;;;;;;4.20;2.10;;;;;;;29.46;28.29;101124.06;5099111;28;20548;-66
2022/07/18 06:59:06;;;;;;;4.43;1.93;;;;;;;28.42;30.18;101116.50;5099346;28;20481;-66
2022/07/18 07:01:33;;;;;;;3.10;1.60;;;;;;;28.30;30.30;101122.84;5099295;27;20906;-66
2022/07/18 07:04:01;;;;;;;2.90;1.60;;;;;;;29.85;27.82;101113.25;5099811;28;20772;-67
2022/07/18 07:06:27;;;;;;;6.30;2.40;;;;;;;31.43;26.55;101122.22;5098150;27;21148;-66
2022/07/18 07:08:55;;;;;;;5.87;1.90;;;;;;;30.32;27.26;101115.69;5099675;28;20479;-66
2022/07/18 07:11:22;;;;;;;3.90;1.17;;;;;;;30.61;26.61;101099.06;5099254;27;20471;-66
2022/07/18 07:13:49;;;;;;;3.33;1.70;;;;;;;30.79;26.54;101101.50;5099103;28;20431;-67
2022/07/18 07:16:16;;;;;;;4.43;1.60;;;;;;;30.57;27.02;101117.19;5098760;27;20498;-64
2022/07/18 07:18:42;;;;;;;3.90;1.70;;;;;;;31.31;25.75;101116.00;5100899;28;20443;-67
2022/07/18 07:21:11;;;;;;;3.23;1.77;;;;;;;30.76;26.23;101112.22;5102561;27;20474;-65
2022/07/18 07:23:37;;;;;;;2.00;1.50;;;;;;;31.11;26.12;101128.50;5103356;28;20435;-66
2022/07/18 07:26:04;;;;;;;3.80;1.43;;;;;;;30.32;26.59;101123.16;5103112;27;20483;-66
2022/07/18 07:28:31;;;;;;;7.00;1.90;;;;;;;29.71;27.81;101123.72;5103426;28;20446;-67
2022/07/18 07:30:58;;;;;;;5.83;1.67;;;;;;;31.58;25.12;101124.38;5102722;27;20852;-66
2022/07/18 07:33:24;;;;;;;3.83;1.60;;;;;;;31.19;25.23;101116.16;5103616;28;20431;-66
2022/07/18 07:35:51;;;;;;;2.43;1.30;;;;;;;31.20;25.49;101115.06;5101903;27;20478;-66
2022/07/18 07:38:19;;;;;;;8.13;2.20;;;;;;;30.77;26.38;101113.91;5102449;28;20442;-67
2022/07/18 07:40:47;;;;;;;3.53;1.67;;;;;;;31.70;25.79;101111.22;5102461;27;20506;-67
2022/07/18 07:43:15;;;;;;;2.47;1.40;;;;;;;32.14;24.55;101112.22;5103493;28;20560;-67
2022/07/18 07:45:42;;;;;;;2.70;1.27;;;;;;;34.18;21.82;101108.63;5101206;27;20487;-67
2022/07/18 07:48:09;;;;;;;2.00;1.30;;;;;;;32.21;24.41;101110.06;5102914;28;20501;-67
2022/07/18 07:50:36;;;;;;;3.17;1.53;;;;;;;32.40;24.00;101107.69;5102378;27;20492;-67
2022/07/18 07:53:02;;;;;;;6.77;1.93;;;;;;;32.20;24.83;101109.19;5102837;28;20459;-67
2022/07/18 07:55:31;;;;;;;5.33;1.37;;;;;;;33.94;22.36;101094.50;5102364;28;20470;-66
2022/07/18 07:57:58;;;;;;;3.90;1.40;;;;;;;34.82;20.21;101092.47;5102813;28;20467;-67
2022/07/18 08:00:24;;;;;;;4.70;1.80;;;;;;;35.53;19.25;101088.50;5101656;27;20483;-68
2022/07/18 08:02:53;;;;;;;5.13;1.67;;;;;;;34.40;20.06;101082.56;5102942;28;20451;-66
2022/07/18 08:05:20;;;;;;;2.87;1.13;;;;;;;34.02;19.85;101074.50;5101685;27;20512;-67
2022/07/18 08:07:46;;;;;;;5.67;1.30;;;;;;;36.17;18.75;101078.28;5102155;28;20462;-66
2022/07/18 08:10:13;;;;;;;5.10;1.70;;;;;;;36.88;18.17;101075.91;5102390;28;20455;-66
2022/07/18 08:12:42;;;;;;;3.73;1.60;;;;;;;34.64;20.33;101077.22;5102312;28;20444;-68
2022/07/18 08:15:09;;;;;;;3.53;1.70;;;;;;;35.16;20.18;101073.13;5101652;28;20426;-68
2022/07/18 08:17:36;;;;;;;2.80;1.50;;;;;;;35.46;19.54;101076.88;5102216;28;20494;-68
2022/07/18 08:20:04;;;;;;;3.50;1.30;;;;;;;33.93;21.18;101070.63;5102106;28;20447;-67
2022/07/18 08:22:31;;;;;;;3.37;1.57;;;;;;;32.79;23.49;101060.31;5101229;28;20472;-67
2022/07/18 08:24:58;;;;;;;7.70;1.50;;;;;;;34.15;22.25;101068.41;5102181;28;20431;-67
2022/07/18 08:27:25;;;;;;;3.63;1.40;;;;;;;35.08;21.24;101070.94;5101819;28;20479;-67
2022/07/18 08:29:53;;;;;;;2.67;1.20;;;;;;;35.13;19.89;101073.69;5101076;28;20451;-65
2022/07/18 08:32:19;;;;;;;3.53;1.37;;;;;;;35.99;19.81;101076.25;5101925;28;20486;-65
2022/07/18 08:34:46;;;;;;;4.83;1.60;;;;;;;34.75;19.34;101066.94;5101842;28;20447;-65
2022/07/18 08:37:13;;;;;;;2.97;1.30;;;;;;;34.69;19.98;101063.31;5100127;27;20475;-66
2022/07/18 08:39:39;;;;;;;2.87;1.30;;;;;;;35.58;19.49;101069.00;5101867;28;20458;-68
2022/07/18 08:42:08;;;;;;;2.63;1.57;;;;;;;36.22;18.46;101062.69;5101457;27;20475;-66
2022/07/18 08:44:35;;;;;;;2.17;1.23;;;;;;;35.99;18.16;101070.69;5101724;28;20457;-66
2022/07/18 08:47:04;;;;;;;3.87;1.40;;;;;;;36.29;17.94;101075.13;5100722;27;20475;-66
2022/07/18 08:49:31;;;;;;;6.53;1.53;;;;;;;35.91;18.54;101086.03;5101276;28;21023;-66
2022/07/18 08:51:58;;;;;;;2.43;1.30;;;;;;;35.22;19.20;101085.09;5100550;27;20468;-66
2022/07/18 08:54:25;;;;;;;3.30;1.20;;;;;;;35.31;18.07;101077.81;5102487;28;20781;-66
2022/07/18 08:56:52;;;;;;;2.30;1.30;;;;;;;35.31;18.35;101083.38;5100742;28;20474;-66
2022/07/18 08:59:18;;;;;;;3.50;1.13;;;;;;;35.30;19.85;101076.16;5101006;28;20451;-66
2022/07/18 09:01:45;;;;;;;3.57;1.47;;;;;;;33.62;20.29;101078.91;5101046;27;20480;-65
2022/07/18 09:04:32;;;;;;;2.63;1.53;;;;;;;33.59;21.43;101073.88;5102014;28;20521;-65
2022/07/18 09:06:59;;;;;;;2.17;1.37;;;;;;;36.26;19.32;101077.69;5100028;27;20467;-66
2022/07/18 09:09:26;;;;;;;4.90;1.50;;;;;;;35.38;19.38;101069.13;5101565;28;20511;-66
2022/07/18 09:11:54;;;;;;;3.23;1.50;;;;;;;35.99;16.79;101067.91;5101033;27;20474;-66
2022/07/18 09:14:36;;;;;;;2.40;0.73;;;;;;;35.80;16.21;101078.91;5100816;28;20488;-66
2022/07/18 09:17:05;;;;;;;3.07;1.13;;;;;;;34.95;15.68;101074.34;5100401;27;20833;-66
2022/07/18 09:19:33;;;;;;;3.00;1.00;;;;;;;34.91;16.63;101073.25;5100738;28;20508;-66
2022/07/18 09:22:17;;;;;;;3.20;1.03;;;;;;;34.92;16.53;101072.97;5100022;28;20946;-66
2022/07/18 09:24:55;;;;;;;2.90;1.17;;;;;;;35.08;16.26;101071.78;5101333;28;20420;-66
2022/07/18 09:27:27;;;;;;;3.90;0.80;;;;;;;34.85;16.82;101069.69;5100230;27;20478;-68
2022/07/18 09:30:25;;;;;;;1.80;1.13;;;;;;;35.43;16.80;101067.19;5101312;28;20443;-65
2022/07/18 09:32:54;;;;;;;2.30;0.90;;;;;;;35.67;16.46;101071.19;5101084;28;20511;-65
2022/07/18 09:35:24;;;;;;;3.67;1.03;;;;;;;36.94;15.14;101069.13;5099003;27;20458;-65
2022/07/18 09:37:56;;;;;;;2.03;1.07;;;;;;;36.51;15.53;101073.78;5100340;28;20420;-65
2022/07/18 09:40:25;;;;;;;2.30;0.90;;;;;;;35.74;16.18;101066.97;5100158;27;20508;-65
2022/07/18 09:42:52;;;;;;;4.87;1.30;;;;;;;36.45;15.27;101064.66;5100010;28;20566;-65
2022/07/18 09:45:23;;;;;;;3.10;1.10;;;;;;;36.41;14.71;101071.13;5100395;28;20434;-66
2022/07/18 09:47:52;;;;;;;2.50;1.23;;;;;;;36.21;15.80;101067.41;5100037;28;20427;-65
2022/07/18 09:50:28;;;;;;;2.97;1.10;;;;;;;36.59;15.57;101073.16;5099439;27;20894;-66
2022/07/18 09:53:04;;;;;;;2.50;1.17;;;;;;;36.84;14.51;101060.91;5100898;28;20451;-66
2022/07/18 09:55:31;;;;;;;1.80;1.07;;;;;;;36.38;14.98;101061.41;5100543;28;20464;-66
2022/07/18 09:58:01;;;;;;;5.70;1.13;;;;;;;36.33;15.44;101053.91;5099529;28;21201;-65
2022/07/18 10:00:29;;;;;;;2.10;0.97;;;;;;;36.09;14.91;101056.63;5099747;28;20464;-65
2022/07/18 10:02:58;;;;;;;2.97;0.97;;;;;;;36.22;16.23;101052.38;5100867;28;20478;-65
2022/07/18 10:05:27;;;;;;;2.00;1.27;;;;;;;35.45;15.68;101056.59;5099153;28;20476;-66
2022/07/18 10:07:54;;;;;;;2.30;1.10;;;;;;;35.70;16.34;101049.19;5100429;28;20458;-66
2022/07/18 10:10:24;;;;;;;4.07;1.00;;;;;;;35.56;16.83;101051.78;5099980;28;20459;-66
2022/07/18 10:12:53;;;;;;;4.17;1.17;;;;;;;34.38;17.67;101054.25;5099817;28;20443;-66
2022/07/18 10:15:22;;;;;;;3.10;1.20;;;;;;;34.60;16.47;101046.41;5099676;27;20438;-65
2022/07/18 10:17:49;;;;;;;1.90;1.20;;;;;;;35.59;15.56;101045.66;5099834;28;20500;-67
2022/07/18 10:20:15;;;;;;;3.17;1.00;;;;;;;36.07;16.27;101039.41;5098894;27;20809;-65
2022/07/18 10:22:44;;;;;;;4.57;1.40;;;;;;;35.13;16.30;101048.69;5100036;28;21046;-64
2022/07/18 10:25:11;;;;;;;2.23;1.43;;;;;;;35.56;16.38;101043.44;5099822;28;20470;-65
2022/07/18 10:27:53;;;;;;;1.60;1.03;;;;;;;35.99;15.27;101035.31;5099477;28;20490;-65
2022/07/18 10:30:34;;;;;;;2.33;1.30;;;;;;;36.27;15.45;101038.41;5099098;28;20451;-65
2022/07/18 10:33:01;;;;;;;2.53;1.60;;;;;;;36.04;15.43;101036.38;5099322;28;20447;-65
2022/07/18 10:36:00;;;;;;;3.93;1.37;;;;;;;36.69;15.28;101024.88;5112708;27;20504;-65
2022/07/18 10:38:28;;;;;;;2.87;1.20;;;;;;;36.59;15.33;101023.00;5120307;28;20451;-65
2022/07/18 10:41:09;;;;;;;3.97;1.40;;;;;;;36.74;16.24;101020.06;5119038;27;20930;-65
2022/07/18 10:43:39;;;;;;;2.13;1.17;;;;;;;37.28;15.56;101017.13;5120687;28;20462;-65
2022/07/18 10:46:07;;;;;;;2.40;1.00;;;;;;;36.94;15.05;101018.13;5119105;27;20459;-64
2022/07/18 10:48:56;;;;;;;1.40;1.13;;;;;;;36.28;15.65;101020.56;5120040;28;20515;-64
2022/07/18 10:51:31;;;;;;;5.00;1.30;;;;;;;36.06;15.88;101020.22;5119498;27;20466;-64
2022/07/18 10:54:13;;;;;;;2.60;1.20;;;;;;;36.16;16.83;101020.13;5124210;28;21145;-64
2022/07/18 10:57:08;;;;;;;1.87;1.10;;;;;;;35.71;15.93;101011.03;5123451;27;20553;-65
2022/07/18 10:59:35;;;;;;;2.27;1.60;;;;;;;35.72;16.14;101005.22;5124361;28;20453;-64
2022/07/18 11:02:06;;;;;;;1.40;1.23;;;;;;;35.58;16.43;101007.00;5124264;27;20539;-64
2022/07/18 11:04:35;;;;;;;1.83;1.33;;;;;;;35.53;15.11;100991.16;5124035;28;20548;-64
2022/07/18 11:07:05;;;;;;;1.80;1.20;;;;;;;36.00;14.92;100992.44;5122906;27;20470;-65
2022/07/18 11:09:38;;;;;;;2.70;1.60;;;;;;;36.17;14.62;100993.94;5124202;28;20603;-65
2022/07/18 11:12:28;;;;;;;2.13;1.60;;;;;;;35.75;15.31;100993.53;5123132;27;20472;-65
2022/07/18 11:15:10;;;;;;;5.03;1.40;;;;;;;36.16;15.64;100995.91;5123924;28;20444;-65
2022/07/18 11:17:58;;;;;;;4.63;1.60;;;;;;;35.84;15.69;100990.94;5123785;27;20441;-65
2022/07/18 11:20:30;;;;;;;7.33;1.83;;;;;;;35.26;15.45;100986.94;5123216;27;20446;-65
2022/07/18 11:22:57;;;;;;;4.60;1.80;;;;;;;35.61;17.22;100973.03;5123919;28;20484;-66
2022/07/18 11:25:28;;;;;;;3.40;2.00;;;;;;;35.29;16.25;100987.47;5121855;27;20452;-66
2022/07/18 11:27:55;;;;;;;2.93;2.00;;;;;;;35.16;16.31;100975.84;5124224;28;20430;-64
2022/07/18 11:30:23;;;;;;;3.50;1.77;;;;;;;35.68;15.86;100987.44;5123731;27;20666;-65
2022/07/18 11:32:50;;;;;;;2.47;1.73;;;;;;;36.15;15.57;100982.28;5123274;28;20442;-65